sensor_id;sensor_type;location;lat;lon;timestamp;temperature;humidity
8945;DHT22;4507;40.232;29.132;2022-10-16T00:01:55;17.70;99.90
8945;DHT22;4507;40.232;29.132;2022-10-16T00:04:24;17.70;99.90
8945;DHT22;4507;40.232;29.132;2022-10-16T00:06:54;17.70;99.90
8945;DHT22;4507;40.232;29.132;2022-10-16T00:09:23;17.70;99.90
8945;DHT22;4507;40.232;29.132;2022-10-16T00:11:51;17.70;99.90
8945;DHT22;4507;40.232;29.132;2022-10-16T00:14:25;17.70;99.90
8945;DHT22;4507;40.232;29.132;2022-10-16T00:16:53;17.70;99.90
8945;DHT22;4507;40.232;29.132;2022-10-16T00:19:22;17.60;99.90
8945;DHT22;4507;40.232;29.132;2022-10-16T00:21:50;17.60;99.90
8945;DHT22;4507;40.232;29.132;2022-10-16T00:24:20;17.60;99.90
8945;DHT22;4507;40.232;29.132;2022-10-16T00:26:49;17.60;99.90
8945;DHT22;4507;40.232;29.132;2022-10-16T00:29:17;17.60;99.90
8945;DHT22;4507;40.232;29.132;2022-10-16T00:31:46;17.60;99.90
8945;DHT22;4507;40.232;29.132;2022-10-16T00:34:14;17.60;99.90
8945;DHT22;4507;40.232;29.132;2022-10-16T00:36:43;17.60;99.90
8945;DHT22;4507;40.232;29.132;2022-10-16T00:39:11;17.50;99.90
8945;DHT22;4507;40.232;29.132;2022-10-16T00:41:41;17.50;99.90
8945;DHT22;4507;40.232;29.132;2022-10-16T00:46:57;17.50;99.90
8945;DHT22;4507;40.232;29.132;2022-10-16T00:49:26;17.50;99.90
8945;DHT22;4507;40.232;29.132;2022-10-16T00:51:54;17.40;99.90
8945;DHT22;4507;40.232;29.132;2022-10-16T00:54:24;17.40;99.90
8945;DHT22;4507;40.232;29.132;2022-10-16T00:56:55;17.40;99.90
8945;DHT22;4507;40.232;29.132;2022-10-16T00:59:25;17.40;99.90
8945;DHT22;4507;40.232;29.132;2022-10-16T01:01:54;17.40;99.90
8945;DHT22;4507;40.232;29.132;2022-10-16T01:04:22;17.30;99.90
8945;DHT22;4507;40.232;29.132;2022-10-16T01:06:53;17.40;99.90
8945;DHT22;4507;40.232;29.132;2022-10-16T01:09:26;17.40;99.90
8945;DHT22;4507;40.232;29.132;2022-10-16T01:12:01;17.40;99.90
8945;DHT22;4507;40.232;29.132;2022-10-16T01:14:34;17.40;99.90
8945;DHT22;4507;40.232;29.132;2022-10-16T01:17:09;17.40;99.90
8945;DHT22;4507;40.232;29.132;2022-10-16T01:20:03;17.40;99.90
8945;DHT22;4507;40.232;29.132;2022-10-16T01:22:37;17.40;99.90
8945;DHT22;4507;40.232;29.132;2022-10-16T01:25:09;17.40;99.90
8945;DHT22;4507;40.232;29.132;2022-10-16T01:27:41;17.40;99.90
8945;DHT22;4507;40.232;29.132;2022-10-16T01:30:13;17.40;99.90
8945;DHT22;4507;40.232;29.132;2022-10-16T01:32:45;17.40;99.90
8945;DHT22;4507;40.232;29.132;2022-10-16T01:35:34;17.40;99.90
8945;DHT22;4507;40.232;29.132;2022-10-16T01:38:03;17.40;99.90
8945;DHT22;4507;40.232;29.132;2022-10-16T01:40:34;17.40;99.90
8945;DHT22;4507;40.232;29.132;2022-10-16T01:43:05;17.40;99.90
8945;DHT22;4507;40.232;29.132;2022-10-16T01:45:35;17.50;99.90
8945;DHT22;4507;40.232;29.132;2022-10-16T01:48:04;17.50;99.90
8945;DHT22;4507;40.232;29.132;2022-10-16T01:50:35;17.50;99.90
8945;DHT22;4507;40.232;29.132;2022-10-16T01:53:05;17.50;99.90
8945;DHT22;4507;40.232;29.132;2022-10-16T01:55:37;17.50;99.90
8945;DHT22;4507;40.232;29.132;2022-10-16T01:58:09;17.50;99.90
8945;DHT22;4507;40.232;29.132;2022-10-16T02:00:39;17.50;99.90
8945;DHT22;4507;40.232;29.132;2022-10-16T02:03:10;17.50;99.90
8945;DHT22;4507;40.232;29.132;2022-10-16T02:05:41;17.40;99.90
8945;DHT22;4507;40.232;29.132;2022-10-16T02:08:10;17.40;99.90
8945;DHT22;4507;40.232;29.132;2022-10-16T02:10:39;17.40;99.90
8945;DHT22;4507;40.232;29.132;2022-10-16T02:13:10;17.40;99.90
8945;DHT22;4507;40.232;29.132;2022-10-16T02:15:58;17.40;99.90
8945;DHT22;4507;40.232;29.132;2022-10-16T02:18:27;17.40;99.90
8945;DHT22;4507;40.232;29.132;2022-10-16T02:20:59;17.30;99.90
8945;DHT22;4507;40.232;29.132;2022-10-16T02:23:30;17.30;99.90
8945;DHT22;4507;40.232;29.132;2022-10-16T02:26:02;17.30;99.90
8945;DHT22;4507;40.232;29.132;2022-10-16T02:28:34;17.30;99.90
8945;DHT22;4507;40.232;29.132;2022-10-16T02:31:04;17.30;99.90
8945;DHT22;4507;40.232;29.132;2022-10-16T02:33:36;17.30;99.90
8945;DHT22;4507;40.232;29.132;2022-10-16T02:36:06;17.30;99.90
8945;DHT22;4507;40.232;29.132;2022-10-16T02:38:35;17.30;99.90
8945;DHT22;4507;40.232;29.132;2022-10-16T02:41:04;17.30;99.90
8945;DHT22;4507;40.232;29.132;2022-10-16T02:43:34;17.30;99.90
8945;DHT22;4507;40.232;29.132;2022-10-16T02:46:03;17.30;99.90
8945;DHT22;4507;40.232;29.132;2022-10-16T02:48:31;17.30;99.90
8945;DHT22;4507;40.232;29.132;2022-10-16T02:51:00;17.30;99.90
8945;DHT22;4507;40.232;29.132;2022-10-16T02:53:28;17.30;99.90
8945;DHT22;4507;40.232;29.132;2022-10-16T02:55:57;17.30;99.90
8945;DHT22;4507;40.232;29.132;2022-10-16T02:58:25;17.30;99.90
8945;DHT22;4507;40.232;29.132;2022-10-16T03:00:56;17.30;99.90
8945;DHT22;4507;40.232;29.132;2022-10-16T03:03:24;17.20;99.90
8945;DHT22;4507;40.232;29.132;2022-10-16T03:05:53;17.20;99.90
8945;DHT22;4507;40.232;29.132;2022-10-16T03:08:21;17.20;99.90
8945;DHT22;4507;40.232;29.132;2022-10-16T03:10:52;17.20;99.90
8945;DHT22;4507;40.232;29.132;2022-10-16T03:13:20;17.20;99.90
8945;DHT22;4507;40.232;29.132;2022-10-16T03:15:49;17.20;99.90
8945;DHT22;4507;40.232;29.132;2022-10-16T03:18:19;17.20;99.90
8945;DHT22;4507;40.232;29.132;2022-10-16T03:20:47;17.20;99.90
8945;DHT22;4507;40.232;29.132;2022-10-16T03:23:16;17.20;99.90
8945;DHT22;4507;40.232;29.132;2022-10-16T03:25:44;17.20;99.90
8945;DHT22;4507;40.232;29.132;2022-10-16T03:28:14;17.20;99.90
8945;DHT22;4507;40.232;29.132;2022-10-16T03:30:42;17.20;99.90
8945;DHT22;4507;40.232;29.132;2022-10-16T03:33:11;17.20;99.90
8945;DHT22;4507;40.232;29.132;2022-10-16T03:35:41;17.20;99.90
8945;DHT22;4507;40.232;29.132;2022-10-16T03:38:09;17.20;99.90
8945;DHT22;4507;40.232;29.132;2022-10-16T03:40:38;17.20;99.90
8945;DHT22;4507;40.232;29.132;2022-10-16T03:43:06;17.20;99.90
8945;DHT22;4507;40.232;29.132;2022-10-16T03:45:35;17.20;99.90
8945;DHT22;4507;40.232;29.132;2022-10-16T03:48:03;17.20;99.90
8945;DHT22;4507;40.232;29.132;2022-10-16T03:50:32;17.20;99.90
8945;DHT22;4507;40.232;29.132;2022-10-16T03:53:02;17.20;99.90
8945;DHT22;4507;40.232;29.132;2022-10-16T03:55:31;17.20;99.90
8945;DHT22;4507;40.232;29.132;2022-10-16T03:57:59;17.20;99.90
8945;DHT22;4507;40.232;29.132;2022-10-16T04:00:28;17.20;99.90
8945;DHT22;4507;40.232;29.132;2022-10-16T04:02:56;17.20;99.90
8945;DHT22;4507;40.232;29.132;2022-10-16T04:05:25;17.20;99.90
8945;DHT22;4507;40.232;29.132;2022-10-16T04:07:54;17.20;99.90
8945;DHT22;4507;40.232;29.132;2022-10-16T04:10:24;17.20;99.90
8945;DHT22;4507;40.232;29.132;2022-10-16T04:12:53;17.20;99.90
8945;DHT22;4507;40.232;29.132;2022-10-16T04:15:23;17.20;99.90
8945;DHT22;4507;40.232;29.132;2022-10-16T04:17:51;17.20;99.90
8945;DHT22;4507;40.232;29.132;2022-10-16T04:20:20;17.20;99.90
8945;DHT22;4507;40.232;29.132;2022-10-16T04:22:49;17.20;99.90
8945;DHT22;4507;40.232;29.132;2022-10-16T04:25:17;17.20;99.90
8945;DHT22;4507;40.232;29.132;2022-10-16T04:27:47;17.20;99.90
8945;DHT22;4507;40.232;29.132;2022-10-16T04:30:16;17.20;99.90
8945;DHT22;4507;40.232;29.132;2022-10-16T04:32:47;17.20;99.90
8945;DHT22;4507;40.232;29.132;2022-10-16T04:35:16;17.20;99.90
8945;DHT22;4507;40.232;29.132;2022-10-16T04:37:45;17.20;99.90
8945;DHT22;4507;40.232;29.132;2022-10-16T04:40:13;17.20;99.90
8945;DHT22;4507;40.232;29.132;2022-10-16T04:42:42;17.20;99.90
8945;DHT22;4507;40.232;29.132;2022-10-16T04:45:11;17.20;99.90
8945;DHT22;4507;40.232;29.132;2022-10-16T04:47:43;17.20;99.90
8945;DHT22;4507;40.232;29.132;2022-10-16T04:50:11;17.20;99.90
8945;DHT22;4507;40.232;29.132;2022-10-16T04:52:40;17.20;99.90
8945;DHT22;4507;40.232;29.132;2022-10-16T04:55:08;17.20;99.90
8945;DHT22;4507;40.232;29.132;2022-10-16T04:57:37;17.20;99.90
8945;DHT22;4507;40.232;29.132;2022-10-16T05:00:06;17.20;99.90
8945;DHT22;4507;40.232;29.132;2022-10-16T05:02:36;17.20;99.90
8945;DHT22;4507;40.232;29.132;2022-10-16T05:05:05;17.20;99.90
8945;DHT22;4507;40.232;29.132;2022-10-16T05:07:34;17.20;99.90
8945;DHT22;4507;40.232;29.132;2022-10-16T05:10:02;17.20;99.90
8945;DHT22;4507;40.232;29.132;2022-10-16T05:12:31;17.20;99.90
8945;DHT22;4507;40.232;29.132;2022-10-16T05:15:00;17.20;99.90
8945;DHT22;4507;40.232;29.132;2022-10-16T05:17:30;17.20;99.90
8945;DHT22;4507;40.232;29.132;2022-10-16T05:20:00;17.20;99.90
8945;DHT22;4507;40.232;29.132;2022-10-16T05:22:29;17.20;99.90
8945;DHT22;4507;40.232;29.132;2022-10-16T05:24:58;17.20;99.90
8945;DHT22;4507;40.232;29.132;2022-10-16T05:27:26;17.20;99.90
8945;DHT22;4507;40.232;29.132;2022-10-16T05:29:55;17.40;99.90
8945;DHT22;4507;40.232;29.132;2022-10-16T05:32:24;17.20;99.90
8945;DHT22;4507;40.232;29.132;2022-10-16T05:34:52;17.20;99.90
8945;DHT22;4507;40.232;29.132;2022-10-16T05:37:22;17.20;99.90
8945;DHT22;4507;40.232;29.132;2022-10-16T05:39:51;17.20;99.90
8945;DHT22;4507;40.232;29.132;2022-10-16T05:42:20;17.20;99.90
8945;DHT22;4507;40.232;29.132;2022-10-16T05:44:48;17.30;99.90
8945;DHT22;4507;40.232;29.132;2022-10-16T05:47:17;17.30;99.90
8945;DHT22;4507;40.232;29.132;2022-10-16T05:49:47;17.30;99.90
8945;DHT22;4507;40.232;29.132;2022-10-16T05:52:16;17.30;99.90
8945;DHT22;4507;40.232;29.132;2022-10-16T05:54:46;17.30;99.90
8945;DHT22;4507;40.232;29.132;2022-10-16T05:57:14;17.30;99.90
8945;DHT22;4507;40.232;29.132;2022-10-16T05:59:43;17.30;99.90
8945;DHT22;4507;40.232;29.132;2022-10-16T06:02:12;17.30;99.90
8945;DHT22;4507;40.232;29.132;2022-10-16T06:04:40;17.30;99.90
8945;DHT22;4507;40.232;29.132;2022-10-16T06:07:09;17.30;99.90
8945;DHT22;4507;40.232;29.132;2022-10-16T06:09:37;17.30;99.90
8945;DHT22;4507;40.232;29.132;2022-10-16T06:12:07;17.30;99.90
8945;DHT22;4507;40.232;29.132;2022-10-16T06:14:36;17.30;99.90
8945;DHT22;4507;40.232;29.132;2022-10-16T06:17:05;17.30;99.90
8945;DHT22;4507;40.232;29.132;2022-10-16T06:19:33;17.30;99.90
8945;DHT22;4507;40.232;29.132;2022-10-16T06:22:02;17.30;99.90
8945;DHT22;4507;40.232;29.132;2022-10-16T06:24:31;17.30;99.90
8945;DHT22;4507;40.232;29.132;2022-10-16T06:26:59;17.30;99.90
8945;DHT22;4507;40.232;29.132;2022-10-16T06:29:29;17.40;99.90
8945;DHT22;4507;40.232;29.132;2022-10-16T06:31:58;17.40;99.90
8945;DHT22;4507;40.232;29.132;2022-10-16T06:34:26;17.40;99.90
8945;DHT22;4507;40.232;29.132;2022-10-16T06:36:55;17.40;99.90
8945;DHT22;4507;40.232;29.132;2022-10-16T06:39:23;17.40;99.90
8945;DHT22;4507;40.232;29.132;2022-10-16T06:41:52;17.40;99.90
8945;DHT22;4507;40.232;29.132;2022-10-16T06:44:24;17.40;99.90
8945;DHT22;4507;40.232;29.132;2022-10-16T06:46:54;17.40;99.90
8945;DHT22;4507;40.232;29.132;2022-10-16T06:49:22;17.40;99.90
8945;DHT22;4507;40.232;29.132;2022-10-16T06:51:50;17.40;99.90
8945;DHT22;4507;40.232;29.132;2022-10-16T06:54:19;17.40;99.90
8945;DHT22;4507;40.232;29.132;2022-10-16T06:56:48;17.40;99.90
8945;DHT22;4507;40.232;29.132;2022-10-16T06:59:16;17.40;99.90
8945;DHT22;4507;40.232;29.132;2022-10-16T07:01:45;17.50;99.90
8945;DHT22;4507;40.232;29.132;2022-10-16T07:04:14;17.50;99.90
8945;DHT22;4507;40.232;29.132;2022-10-16T07:06:43;17.50;99.90
8945;DHT22;4507;40.232;29.132;2022-10-16T07:09:11;17.50;99.90
8945;DHT22;4507;40.232;29.132;2022-10-16T07:11:41;17.50;99.90
8945;DHT22;4507;40.232;29.132;2022-10-16T07:14:12;17.50;99.90
8945;DHT22;4507;40.232;29.132;2022-10-16T07:17:02;17.50;99.90
8945;DHT22;4507;40.232;29.132;2022-10-16T07:19:32;17.40;99.90
8945;DHT22;4507;40.232;29.132;2022-10-16T07:22:00;17.50;99.90
8945;DHT22;4507;40.232;29.132;2022-10-16T07:24:30;17.50;99.90
8945;DHT22;4507;40.232;29.132;2022-10-16T07:26:58;17.50;99.90
8945;DHT22;4507;40.232;29.132;2022-10-16T07:29:26;17.50;99.90
8945;DHT22;4507;40.232;29.132;2022-10-16T07:31:55;17.50;99.90
8945;DHT22;4507;40.232;29.132;2022-10-16T07:34:23;17.50;99.90
8945;DHT22;4507;40.232;29.132;2022-10-16T07:37:13;17.50;99.90
8945;DHT22;4507;40.232;29.132;2022-10-16T07:39:42;17.60;99.90
8945;DHT22;4507;40.232;29.132;2022-10-16T07:42:10;17.50;99.90
8945;DHT22;4507;40.232;29.132;2022-10-16T07:44:39;17.60;99.90
8945;DHT22;4507;40.232;29.132;2022-10-16T07:47:08;17.50;99.90
8945;DHT22;4507;40.232;29.132;2022-10-16T07:49:36;17.60;99.90
8945;DHT22;4507;40.232;29.132;2022-10-16T07:52:05;17.60;99.90
8945;DHT22;4507;40.232;29.132;2022-10-16T07:54:34;17.60;99.90
8945;DHT22;4507;40.232;29.132;2022-10-16T07:57:03;17.60;99.90
8945;DHT22;4507;40.232;29.132;2022-10-16T07:59:31;17.60;99.90
8945;DHT22;4507;40.232;29.132;2022-10-16T08:02:00;17.60;99.90
8945;DHT22;4507;40.232;29.132;2022-10-16T08:04:28;17.60;99.90
8945;DHT22;4507;40.232;29.132;2022-10-16T08:06:57;17.60;99.90
8945;DHT22;4507;40.232;29.132;2022-10-16T08:09:25;17.50;99.90
8945;DHT22;4507;40.232;29.132;2022-10-16T08:11:55;17.60;99.90
8945;DHT22;4507;40.232;29.132;2022-10-16T08:14:28;17.50;99.90
8945;DHT22;4507;40.232;29.132;2022-10-16T08:16:56;17.50;99.90
8945;DHT22;4507;40.232;29.132;2022-10-16T08:19:25;17.50;99.90
8945;DHT22;4507;40.232;29.132;2022-10-16T08:21:53;17.50;99.90
8945;DHT22;4507;40.232;29.132;2022-10-16T08:24:22;17.50;99.90
8945;DHT22;4507;40.232;29.132;2022-10-16T08:26:53;17.60;99.90
8945;DHT22;4507;40.232;29.132;2022-10-16T08:29:22;17.60;99.90
8945;DHT22;4507;40.232;29.132;2022-10-16T08:31:51;17.60;99.90
8945;DHT22;4507;40.232;29.132;2022-10-16T08:34:19;17.50;99.90
8945;DHT22;4507;40.232;29.132;2022-10-16T08:36:48;17.60;99.90
8945;DHT22;4507;40.232;29.132;2022-10-16T08:39:16;17.60;99.90
8945;DHT22;4507;40.232;29.132;2022-10-16T08:47:25;17.70;99.90
8945;DHT22;4507;40.232;29.132;2022-10-16T08:49:55;17.60;99.90
8945;DHT22;4507;40.232;29.132;2022-10-16T08:52:25;17.60;99.90
8945;DHT22;4507;40.232;29.132;2022-10-16T08:54:57;17.60;99.90
8945;DHT22;4507;40.232;29.132;2022-10-16T08:57:25;17.60;99.90
8945;DHT22;4507;40.232;29.132;2022-10-16T08:59:54;17.60;99.90
8945;DHT22;4507;40.232;29.132;2022-10-16T09:02:31;17.60;99.90
8945;DHT22;4507;40.232;29.132;2022-10-16T09:05:15;17.60;99.90
8945;DHT22;4507;40.232;29.132;2022-10-16T09:07:48;17.60;99.90
8945;DHT22;4507;40.232;29.132;2022-10-16T09:10:21;17.60;99.90
8945;DHT22;4507;40.232;29.132;2022-10-16T09:12:54;17.60;99.90
8945;DHT22;4507;40.232;29.132;2022-10-16T09:15:27;17.60;99.90
8945;DHT22;4507;40.232;29.132;2022-10-16T09:18:00;17.60;99.90
8945;DHT22;4507;40.232;29.132;2022-10-16T09:20:31;17.70;99.90
8945;DHT22;4507;40.232;29.132;2022-10-16T09:23:08;17.60;99.90
8945;DHT22;4507;40.232;29.132;2022-10-16T09:25:38;17.70;99.90
8945;DHT22;4507;40.232;29.132;2022-10-16T09:28:07;17.70;99.90
8945;DHT22;4507;40.232;29.132;2022-10-16T09:30:36;17.70;99.90
8945;DHT22;4507;40.232;29.132;2022-10-16T09:33:07;17.70;99.90
8945;DHT22;4507;40.232;29.132;2022-10-16T09:35:37;17.70;99.90
8945;DHT22;4507;40.232;29.132;2022-10-16T09:38:06;17.80;99.90
8945;DHT22;4507;40.232;29.132;2022-10-16T09:40:35;17.80;99.90
8945;DHT22;4507;40.232;29.132;2022-10-16T09:43:11;17.80;99.90
8945;DHT22;4507;40.232;29.132;2022-10-16T09:45:52;17.80;99.90
8945;DHT22;4507;40.232;29.132;2022-10-16T09:48:23;17.80;99.90
8945;DHT22;4507;40.232;29.132;2022-10-16T09:50:57;17.80;99.90
8945;DHT22;4507;40.232;29.132;2022-10-16T09:53:26;17.90;99.90
8945;DHT22;4507;40.232;29.132;2022-10-16T09:56:05;17.80;99.90
8945;DHT22;4507;40.232;29.132;2022-10-16T09:58:42;17.80;99.90
8945;DHT22;4507;40.232;29.132;2022-10-16T10:01:12;17.80;99.90
8945;DHT22;4507;40.232;29.132;2022-10-16T10:03:43;17.90;99.90
8945;DHT22;4507;40.232;29.132;2022-10-16T10:06:31;17.90;99.90
8945;DHT22;4507;40.232;29.132;2022-10-16T10:09:03;17.90;99.90
8945;DHT22;4507;40.232;29.132;2022-10-16T10:11:39;17.90;99.90
8945;DHT22;4507;40.232;29.132;2022-10-16T10:14:13;17.90;99.90
8945;DHT22;4507;40.232;29.132;2022-10-16T10:16:43;17.90;99.90
8945;DHT22;4507;40.232;29.132;2022-10-16T10:19:15;17.90;99.90
8945;DHT22;4507;40.232;29.132;2022-10-16T10:21:43;17.90;99.90
8945;DHT22;4507;40.232;29.132;2022-10-16T10:24:12;17.80;99.90
8945;DHT22;4507;40.232;29.132;2022-10-16T10:26:42;17.80;99.90
8945;DHT22;4507;40.232;29.132;2022-10-16T10:29:16;17.80;99.90
8945;DHT22;4507;40.232;29.132;2022-10-16T10:31:48;17.80;99.90
8945;DHT22;4507;40.232;29.132;2022-10-16T10:34:25;17.80;99.90
8945;DHT22;4507;40.232;29.132;2022-10-16T10:36:56;17.80;99.90
8945;DHT22;4507;40.232;29.132;2022-10-16T10:39:29;17.70;99.90
8945;DHT22;4507;40.232;29.132;2022-10-16T10:42:04;17.70;99.90
8945;DHT22;4507;40.232;29.132;2022-10-16T10:47:21;17.70;99.90
8945;DHT22;4507;40.232;29.132;2022-10-16T10:49:57;17.70;99.90
8945;DHT22;4507;40.232;29.132;2022-10-16T10:52:41;17.70;99.90
8945;DHT22;4507;40.232;29.132;2022-10-16T10:55:14;17.80;99.90
8945;DHT22;4507;40.232;29.132;2022-10-16T10:57:49;17.80;99.90
8945;DHT22;4507;40.232;29.132;2022-10-16T11:00:21;17.80;99.90
8945;DHT22;4507;40.232;29.132;2022-10-16T11:02:53;17.80;99.90
8945;DHT22;4507;40.232;29.132;2022-10-16T11:05:30;17.70;99.90
8945;DHT22;4507;40.232;29.132;2022-10-16T11:08:00;17.80;99.90
8945;DHT22;4507;40.232;29.132;2022-10-16T11:10:30;17.80;99.90
8945;DHT22;4507;40.232;29.132;2022-10-16T11:13:04;17.80;99.90
8945;DHT22;4507;40.232;29.132;2022-10-16T11:15:38;17.70;99.90
8945;DHT22;4507;40.232;29.132;2022-10-16T11:18:11;17.80;99.90
8945;DHT22;4507;40.232;29.132;2022-10-16T11:20:44;17.80;99.90
8945;DHT22;4507;40.232;29.132;2022-10-16T11:23:16;17.70;99.90
8945;DHT22;4507;40.232;29.132;2022-10-16T11:25:46;17.70;99.90
8945;DHT22;4507;40.232;29.132;2022-10-16T11:28:18;17.70;99.90
8945;DHT22;4507;40.232;29.132;2022-10-16T11:30:57;17.70;99.90
8945;DHT22;4507;40.232;29.132;2022-10-16T11:33:27;17.80;99.90
8945;DHT22;4507;40.232;29.132;2022-10-16T11:36:02;17.80;99.90
8945;DHT22;4507;40.232;29.132;2022-10-16T11:38:32;17.70;99.90
8945;DHT22;4507;40.232;29.132;2022-10-16T11:41:03;17.70;99.90
8945;DHT22;4507;40.232;29.132;2022-10-16T11:43:38;17.70;99.90
8945;DHT22;4507;40.232;29.132;2022-10-16T11:46:08;17.80;99.90
8945;DHT22;4507;40.232;29.132;2022-10-16T11:48:39;17.70;99.90
8945;DHT22;4507;40.232;29.132;2022-10-16T11:51:14;17.70;99.90
8945;DHT22;4507;40.232;29.132;2022-10-16T11:53:45;17.70;99.90
8945;DHT22;4507;40.232;29.132;2022-10-16T11:56:15;17.70;99.90
8945;DHT22;4507;40.232;29.132;2022-10-16T11:58:48;17.70;99.90
8945;DHT22;4507;40.232;29.132;2022-10-16T12:01:21;17.70;99.90
8945;DHT22;4507;40.232;29.132;2022-10-16T12:03:55;17.70;99.90
8945;DHT22;4507;40.232;29.132;2022-10-16T12:06:30;17.70;99.90
8945;DHT22;4507;40.232;29.132;2022-10-16T12:09:00;17.70;99.90
8945;DHT22;4507;40.232;29.132;2022-10-16T12:11:34;17.70;99.90
8945;DHT22;4507;40.232;29.132;2022-10-16T12:14:04;17.70;99.90
8945;DHT22;4507;40.232;29.132;2022-10-16T12:16:34;17.70;99.90
8945;DHT22;4507;40.232;29.132;2022-10-16T12:19:12;17.70;99.90
8945;DHT22;4507;40.232;29.132;2022-10-16T12:21:43;17.80;99.90
8945;DHT22;4507;40.232;29.132;2022-10-16T12:24:20;17.90;99.90
8945;DHT22;4507;40.232;29.132;2022-10-16T12:26:49;17.90;99.90
8945;DHT22;4507;40.232;29.132;2022-10-16T12:29:22;17.80;99.90
8945;DHT22;4507;40.232;29.132;2022-10-16T12:31:51;17.90;99.90
8945;DHT22;4507;40.232;29.132;2022-10-16T12:34:26;17.90;99.90
8945;DHT22;4507;40.232;29.132;2022-10-16T12:37:07;17.90;99.90
8945;DHT22;4507;40.232;29.132;2022-10-16T12:39:36;17.90;99.90
8945;DHT22;4507;40.232;29.132;2022-10-16T12:42:05;17.90;99.90
8945;DHT22;4507;40.232;29.132;2022-10-16T12:44:45;17.90;99.90
8945;DHT22;4507;40.232;29.132;2022-10-16T12:47:21;17.90;99.90
8945;DHT22;4507;40.232;29.132;2022-10-16T12:49:51;17.90;99.90
8945;DHT22;4507;40.232;29.132;2022-10-16T12:52:25;17.90;99.90
8945;DHT22;4507;40.232;29.132;2022-10-16T12:54:58;17.80;99.90
8945;DHT22;4507;40.232;29.132;2022-10-16T12:57:31;17.90;99.90
8945;DHT22;4507;40.232;29.132;2022-10-16T13:00:08;17.90;99.90
8945;DHT22;4507;40.232;29.132;2022-10-16T13:02:49;17.90;99.90
8945;DHT22;4507;40.232;29.132;2022-10-16T13:05:21;17.90;99.90
8945;DHT22;4507;40.232;29.132;2022-10-16T13:07:59;17.90;99.90
8945;DHT22;4507;40.232;29.132;2022-10-16T13:10:32;17.90;99.90
8945;DHT22;4507;40.232;29.132;2022-10-16T13:13:11;17.90;99.90
8945;DHT22;4507;40.232;29.132;2022-10-16T13:15:47;18.00;99.90
8945;DHT22;4507;40.232;29.132;2022-10-16T13:18:19;18.00;99.90
8945;DHT22;4507;40.232;29.132;2022-10-16T13:20:56;18.00;99.90
8945;DHT22;4507;40.232;29.132;2022-10-16T13:23:29;18.00;99.90
8945;DHT22;4507;40.232;29.132;2022-10-16T13:26:03;17.90;99.90
8945;DHT22;4507;40.232;29.132;2022-10-16T13:28:35;18.00;99.90
8945;DHT22;4507;40.232;29.132;2022-10-16T13:31:04;18.00;99.90
8945;DHT22;4507;40.232;29.132;2022-10-16T13:33:35;18.00;99.90
8945;DHT22;4507;40.232;29.132;2022-10-16T13:36:17;18.00;99.90
8945;DHT22;4507;40.232;29.132;2022-10-16T13:39:00;18.00;99.90
8945;DHT22;4507;40.232;29.132;2022-10-16T13:41:29;18.00;99.90
8945;DHT22;4507;40.232;29.132;2022-10-16T13:43:58;18.10;99.90
8945;DHT22;4507;40.232;29.132;2022-10-16T13:46:26;18.10;99.90
8945;DHT22;4507;40.232;29.132;2022-10-16T13:48:57;18.10;99.90
8945;DHT22;4507;40.232;29.132;2022-10-16T13:51:26;18.10;99.90
8945;DHT22;4507;40.232;29.132;2022-10-16T13:53:55;18.10;99.90
8945;DHT22;4507;40.232;29.132;2022-10-16T13:56:27;18.10;99.90
8945;DHT22;4507;40.232;29.132;2022-10-16T13:58:59;18.10;99.90
8945;DHT22;4507;40.232;29.132;2022-10-16T14:01:30;18.10;99.90
8945;DHT22;4507;40.232;29.132;2022-10-16T14:04:01;18.10;99.90
8945;DHT22;4507;40.232;29.132;2022-10-16T14:06:50;18.10;99.90
8945;DHT22;4507;40.232;29.132;2022-10-16T14:09:22;18.10;99.90
8945;DHT22;4507;40.232;29.132;2022-10-16T14:11:56;18.10;99.90
8945;DHT22;4507;40.232;29.132;2022-10-16T14:14:25;18.10;99.90
8945;DHT22;4507;40.232;29.132;2022-10-16T14:16:55;18.10;99.90
8945;DHT22;4507;40.232;29.132;2022-10-16T14:19:25;18.00;99.90
8945;DHT22;4507;40.232;29.132;2022-10-16T14:21:55;18.00;99.90
8945;DHT22;4507;40.232;29.132;2022-10-16T14:24:30;18.00;99.90
8945;DHT22;4507;40.232;29.132;2022-10-16T14:27:02;18.00;99.90
8945;DHT22;4507;40.232;29.132;2022-10-16T14:29:49;18.00;99.90
8945;DHT22;4507;40.232;29.132;2022-10-16T14:32:22;18.00;99.90
8945;DHT22;4507;40.232;29.132;2022-10-16T14:34:52;18.00;99.90
8945;DHT22;4507;40.232;29.132;2022-10-16T14:37:22;18.00;99.90
8945;DHT22;4507;40.232;29.132;2022-10-16T14:39:54;17.90;99.90
8945;DHT22;4507;40.232;29.132;2022-10-16T14:42:24;17.90;99.90
8945;DHT22;4507;40.232;29.132;2022-10-16T14:44:54;17.90;99.90
8945;DHT22;4507;40.232;29.132;2022-10-16T14:47:24;17.90;99.90
8945;DHT22;4507;40.232;29.132;2022-10-16T14:49:54;17.90;99.90
8945;DHT22;4507;40.232;29.132;2022-10-16T14:52:26;17.80;99.90
8945;DHT22;4507;40.232;29.132;2022-10-16T14:54:55;17.80;99.90
8945;DHT22;4507;40.232;29.132;2022-10-16T14:57:26;17.80;99.90
8945;DHT22;4507;40.232;29.132;2022-10-16T14:59:56;17.80;99.90
8945;DHT22;4507;40.232;29.132;2022-10-16T15:02:28;17.80;99.90
8945;DHT22;4507;40.232;29.132;2022-10-16T15:04:57;17.80;99.90
8945;DHT22;4507;40.232;29.132;2022-10-16T15:07:32;17.90;99.90
8945;DHT22;4507;40.232;29.132;2022-10-16T15:10:01;17.80;99.90
8945;DHT22;4507;40.232;29.132;2022-10-16T15:12:31;17.80;99.90
8945;DHT22;4507;40.232;29.132;2022-10-16T15:14:59;17.80;99.90
8945;DHT22;4507;40.232;29.132;2022-10-16T15:17:28;17.80;99.90
8945;DHT22;4507;40.232;29.132;2022-10-16T15:19:57;17.80;99.90
8945;DHT22;4507;40.232;29.132;2022-10-16T15:22:26;17.80;99.90
8945;DHT22;4507;40.232;29.132;2022-10-16T15:24:54;17.80;99.90
8945;DHT22;4507;40.232;29.132;2022-10-16T15:27:22;17.80;99.90
8945;DHT22;4507;40.232;29.132;2022-10-16T15:29:53;17.80;99.90
8945;DHT22;4507;40.232;29.132;2022-10-16T15:32:21;17.70;99.90
8945;DHT22;4507;40.232;29.132;2022-10-16T15:34:50;17.70;99.90
8945;DHT22;4507;40.232;29.132;2022-10-16T15:37:18;17.80;99.90
8945;DHT22;4507;40.232;29.132;2022-10-16T15:39:47;17.70;99.90
8945;DHT22;4507;40.232;29.132;2022-10-16T15:42:15;17.70;99.90
8945;DHT22;4507;40.232;29.132;2022-10-16T15:44:44;17.70;99.90
8945;DHT22;4507;40.232;29.132;2022-10-16T15:47:13;17.70;99.90
8945;DHT22;4507;40.232;29.132;2022-10-16T15:49:42;17.70;99.90
8945;DHT22;4507;40.232;29.132;2022-10-16T15:52:10;17.70;99.90
8945;DHT22;4507;40.232;29.132;2022-10-16T15:54:39;17.70;99.90
8945;DHT22;4507;40.232;29.132;2022-10-16T15:57:07;17.70;99.90
8945;DHT22;4507;40.232;29.132;2022-10-16T15:59:36;17.70;99.90
8945;DHT22;4507;40.232;29.132;2022-10-16T16:02:05;17.70;99.90
8945;DHT22;4507;40.232;29.132;2022-10-16T16:04:35;17.70;99.90
8945;DHT22;4507;40.232;29.132;2022-10-16T16:07:10;17.70;99.90
8945;DHT22;4507;40.232;29.132;2022-10-16T16:09:40;17.70;99.90
8945;DHT22;4507;40.232;29.132;2022-10-16T16:12:08;17.70;99.90
8945;DHT22;4507;40.232;29.132;2022-10-16T16:14:37;17.70;99.90
8945;DHT22;4507;40.232;29.132;2022-10-16T16:17:05;17.70;99.90
8945;DHT22;4507;40.232;29.132;2022-10-16T16:19:35;17.70;99.90